This is the latest recevied weather packets stored in our database for station/object G7TKI-13. If no packets are shown the sender has not sent any weather packets the latest 10 day(s).
| Time | Temp. | Humidity | Pressure | Rain* | Wind** | Luminosity | Snow |
|---|---|---|---|---|---|---|---|
| 1777154144 | 8.33° C | 69% | 1026.6 hPa | 0 mm | - | 0 W/m² | - |
| 1777149919 | 11.11° C | 63% | 1026.1 hPa | 0 mm | - | 0 W/m² | - |
| 1777147786 | 12.78° C | 57% | 1025.9 hPa | 0 mm | - | 0 W/m² | - |
| 1777136895 | 22.22° C | 28% | 1024.3 hPa | 0 mm | - | 47 W/m² | - |
| 1777133259 | 21.67° C | 25% | 1024.4 hPa | 0 mm | - | 296 W/m² | - |
| 1777132658 | 22.78° C | 23% | 1024.4 hPa | 0 mm | - | 320 W/m² | - |
| 1777125984 | 22.22° C | 24% | 1024.6 hPa | 0 mm | - | 569 W/m² | - |
| 1777125375 | 24.44° C | 20% | 1024.8 hPa | 0 mm | - | 588 W/m² | - |
| 1777123562 | 22.78° C | 21% | 1024.6 hPa | 0 mm | - | 639 W/m² | - |
| 1777121735 | 22.22° C | 21% | 1025.2 hPa | 0 mm | - | 681 W/m² | - |
| 1777121134 | 20.56° C | 26% | 1025.1 hPa | 0 mm | - | 691 W/m² | - |
| 1777119311 | 20° C | 29% | 1025.2 hPa | 0 mm | - | 692 W/m² | - |
| 1777118703 | 19.44° C | 35% | 1025.2 hPa | 0 mm | - | 700 W/m² | - |
| 1777113839 | 18.89° C | 38% | 1025.4 hPa | 0 mm | - | 653 W/m² | - |
| 1777112619 | 18.33° C | 41% | 1025.4 hPa | 0 mm | - | 633 W/m² | - |
| 1777110814 | 16.67° C | 57% | 1025.5 hPa | 0 mm | - | 415 W/m² | - |
| 1777110201 | 15.56° C | 60% | 1025.4 hPa | 0 mm | - | 569 W/m² | - |
| 1777108383 | 11.11° C | 74% | 1025.5 hPa | 0 mm | - | 481 W/m² | - |
| 1777105956 | 7.78° C | 84% | 1025.6 hPa | 0 mm | - | 266 W/m² | - |
| 1777095511 | 1.11° C | 96% | 1025.4 hPa | 0 mm | - | 28 W/m² | - |
| 1777093696 | 0.56° C | 96% | 1025.4 hPa | 0 mm | - | 10 W/m² | - |
| 1777090623 | 0° C | 96% | 1025.3 hPa | 0 mm | - | 0 W/m² | - |
| 1777089401 | 0° C | 96% | 1025.2 hPa | 0 mm | - | 0 W/m² | - |
| 1777088799 | 0° C | 96% | 1025.2 hPa | 0 mm | - | 0 W/m² | - |
| 1777086992 | 0° C | 95% | 1025.5 hPa | 0 mm | - | 0 W/m² | - |
* Rain latest hour (hover to see other rain measurements)
** Current wind speed in m/s (hover to see current wind gust speed)